createdAt,value
2019-03-08T00:01:57.343Z,4.73
2019-03-08T00:04:29.095Z,2.13
2019-03-08T00:07:00.774Z,2.13
2019-03-08T00:09:32.435Z,2.63
2019-03-08T00:12:04.148Z,3.80
2019-03-08T00:14:35.819Z,1.93
2019-03-08T00:17:07.507Z,1.60
2019-03-08T00:19:39.284Z,3.77
2019-03-08T00:22:11.084Z,2.67
2019-03-08T00:24:42.779Z,2.67
2019-03-08T00:27:14.453Z,3.83
2019-03-08T00:29:46.422Z,3.27
2019-03-08T00:32:18.294Z,2.50
2019-03-08T00:34:50.054Z,8.03
2019-03-08T00:37:22.011Z,1.50
2019-03-08T00:39:53.771Z,7.33
2019-03-08T00:42:25.539Z,2.00
2019-03-08T00:44:57.199Z,1.73
2019-03-08T00:47:28.869Z,1.37
2019-03-08T00:50:00.632Z,1.60
2019-03-08T00:52:33.083Z,4.27
2019-03-08T00:55:05.084Z,4.90
2019-03-08T00:57:36.966Z,4.73
2019-03-08T01:00:11.095Z,5.20
2019-03-08T01:02:42.875Z,2.80
2019-03-08T01:05:15.204Z,5.27
2019-03-08T01:07:47.075Z,5.23
2019-03-08T01:10:18.768Z,4.13
2019-03-08T01:12:50.755Z,4.20
2019-03-08T01:15:22.607Z,5.53
2019-03-08T01:17:54.291Z,1.57
2019-03-08T01:20:27.969Z,2.60
2019-03-08T01:22:59.735Z,6.77
2019-03-08T01:25:31.502Z,2.63
2019-03-08T01:28:05.811Z,6.80
2019-03-08T01:30:37.975Z,2.97
2019-03-08T01:33:10.016Z,3.43
2019-03-08T01:35:41.782Z,3.87
2019-03-08T01:38:13.444Z,3.83
2019-03-08T01:40:45.107Z,2.47
2019-03-08T01:43:16.795Z,4.90
2019-03-08T01:45:48.472Z,3.07
2019-03-08T01:48:20.239Z,5.00
2019-03-08T01:50:51.897Z,2.43
2019-03-08T01:53:23.674Z,2.90
2019-03-08T01:55:55.527Z,6.13
2019-03-08T01:58:27.487Z,3.03
2019-03-08T02:00:59.564Z,6.90
2019-03-08T02:03:33.977Z,4.47
2019-03-08T02:06:07.739Z,5.30
2019-03-08T02:08:43.078Z,4.30
2019-03-08T02:11:14.923Z,3.83
2019-03-08T02:13:46.603Z,2.17
2019-03-08T02:16:18.270Z,2.37
2019-03-08T02:18:49.964Z,3.67
2019-03-08T02:21:21.832Z,1.00
2019-03-08T02:23:53.527Z,2.70
2019-03-08T02:26:25.188Z,3.93
2019-03-08T02:28:56.866Z,3.27
2019-03-08T02:31:28.637Z,5.13
2019-03-08T02:34:00.319Z,1.23
2019-03-08T02:36:31.980Z,1.93
2019-03-08T02:39:04.952Z,2.23
2019-03-08T02:41:36.735Z,3.63
2019-03-08T02:44:08.826Z,4.10
2019-03-08T02:46:40.502Z,5.80
2019-03-08T02:49:12.239Z,1.37
2019-03-08T02:51:43.906Z,1.80
2019-03-08T02:54:15.828Z,1.70
2019-03-08T02:56:47.599Z,3.23
2019-03-08T02:59:19.390Z,3.57
2019-03-08T03:01:51.079Z,2.43
2019-03-08T03:04:22.750Z,4.37
2019-03-08T03:06:54.522Z,4.33
2019-03-08T03:09:26.184Z,3.17
2019-03-08T03:11:57.867Z,2.03
2019-03-08T03:14:29.624Z,8.43
2019-03-08T03:17:01.287Z,8.47
2019-03-08T03:19:33.170Z,1.70
2019-03-08T03:22:04.851Z,1.37
2019-03-08T03:24:36.511Z,3.37
2019-03-08T03:27:08.186Z,4.00
2019-03-08T03:29:39.959Z,2.30
2019-03-08T03:32:11.719Z,1.87
2019-03-08T03:34:43.371Z,2.33
2019-03-08T03:37:15.046Z,3.47
2019-03-08T03:39:46.719Z,1.47
2019-03-08T03:42:18.478Z,6.73
2019-03-08T03:44:50.242Z,2.27
2019-03-08T03:47:21.942Z,2.13
2019-03-08T03:49:53.706Z,2.97
2019-03-08T03:52:25.380Z,2.03
2019-03-08T03:54:57.343Z,3.03
2019-03-08T03:57:29.039Z,1.13
2019-03-08T04:00:00.886Z,4.13
2019-03-08T04:02:32.551Z,4.00
2019-03-08T04:05:04.631Z,6.43
2019-03-08T04:07:36.318Z,3.20
2019-03-08T04:10:09.092Z,1.87
2019-03-08T04:12:40.971Z,4.97
2019-03-08T04:15:13.175Z,3.20
2019-03-08T04:17:44.875Z,6.00
2019-03-08T04:20:16.745Z,2.23
2019-03-08T04:22:48.622Z,0.80
2019-03-08T04:25:20.382Z,1.90
2019-03-08T04:27:52.274Z,6.13
2019-03-08T04:30:24.219Z,3.63
2019-03-08T04:32:56.006Z,5.93
2019-03-08T04:35:27.684Z,5.03
2019-03-08T04:37:59.479Z,2.97
2019-03-08T04:40:31.248Z,3.23
2019-03-08T04:43:03.010Z,3.67
2019-03-08T04:45:34.674Z,1.43
2019-03-08T04:48:06.346Z,1.73
2019-03-08T04:50:38.011Z,8.10
2019-03-08T04:53:09.675Z,1.43
2019-03-08T04:55:41.330Z,4.20
2019-03-08T04:58:13.102Z,1.87
2019-03-08T05:00:44.775Z,9.57
2019-03-08T05:03:16.452Z,5.27
2019-03-08T05:05:48.124Z,4.83
2019-03-08T05:08:19.887Z,1.10
2019-03-08T05:10:51.639Z,3.00
2019-03-08T05:13:23.409Z,3.33
2019-03-08T05:15:55.180Z,2.40
2019-03-08T05:18:26.955Z,0.93
2019-03-08T05:20:58.726Z,2.90
2019-03-08T05:23:30.398Z,2.97
2019-03-08T05:26:02.169Z,1.93
2019-03-08T05:28:33.856Z,4.63
2019-03-08T05:31:05.554Z,3.60
2019-03-08T05:33:37.246Z,2.63
2019-03-08T05:36:09.001Z,6.10
2019-03-08T05:38:40.671Z,0.60
2019-03-08T05:41:12.331Z,7.47
2019-03-08T05:43:44.002Z,3.37
2019-03-08T05:46:15.671Z,3.83
2019-03-08T05:48:47.346Z,4.63
2019-03-08T05:51:19.107Z,1.17
2019-03-08T05:53:50.798Z,2.87
2019-03-08T05:56:22.450Z,2.80
2019-03-08T05:58:54.139Z,9.73
2019-03-08T06:01:25.802Z,10.53
2019-03-08T06:03:57.501Z,2.50
2019-03-08T06:06:29.470Z,2.13
2019-03-08T06:09:01.151Z,7.33
2019-03-08T06:11:32.810Z,4.13
2019-03-08T06:14:04.479Z,1.50
2019-03-08T06:16:36.139Z,6.63
2019-03-08T06:19:08.181Z,4.03
2019-03-08T06:21:39.878Z,3.60
2019-03-08T06:24:11.663Z,7.03
2019-03-08T06:26:43.335Z,4.80
2019-03-08T06:29:15.024Z,2.43
2019-03-08T06:31:46.975Z,1.47
2019-03-08T06:34:18.748Z,4.33
2019-03-08T06:36:50.607Z,2.23
2019-03-08T06:39:22.383Z,2.33
2019-03-08T06:41:54.132Z,1.10
2019-03-08T06:44:26.011Z,15.37
2019-03-08T06:46:57.775Z,3.70
2019-03-08T06:49:29.595Z,2.40
2019-03-08T06:52:01.355Z,2.10
2019-03-08T06:54:33.018Z,2.80
2019-03-08T06:57:04.719Z,3.87
2019-03-08T06:59:40.684Z,3.23
2019-03-08T07:02:13.111Z,8.93
2019-03-08T07:04:44.781Z,4.10
2019-03-08T07:07:16.747Z,4.33
2019-03-08T07:09:48.419Z,3.00
2019-03-08T07:12:20.075Z,2.17
2019-03-08T07:14:51.774Z,4.20
2019-03-08T07:17:23.523Z,1.03
2019-03-08T07:20:05.458Z,2.17
2019-03-08T07:23:02.880Z,6.47
2019-03-08T07:26:03.236Z,3.00
2019-03-08T07:28:51.410Z,2.60
2019-03-08T07:31:41.311Z,1.10
2019-03-08T07:34:20.104Z,4.07
2019-03-08T07:37:10.095Z,0.93
2019-03-08T07:39:53.556Z,4.03
2019-03-08T07:42:45.031Z,2.47
2019-03-08T07:45:26.268Z,3.03
2019-03-08T07:48:12.173Z,3.03
2019-03-08T07:51:07.165Z,2.60
2019-03-08T07:53:57.069Z,4.23
2019-03-08T07:56:46.998Z,10.43
2019-03-08T07:59:37.010Z,3.30
2019-03-08T08:02:20.302Z,2.07
2019-03-08T08:05:02.848Z,6.50
2019-03-08T08:07:42.107Z,6.50
2019-03-08T08:10:20.671Z,4.77
2019-03-08T08:13:07.145Z,2.80
2019-03-08T08:16:07.394Z,7.97
2019-03-08T08:18:57.036Z,6.83
2019-03-08T08:21:35.403Z,5.10
2019-03-08T08:24:20.392Z,7.90
2019-03-08T08:27:14.416Z,3.13
2019-03-08T08:30:00.366Z,3.43
2019-03-08T08:33:00.523Z,2.27
2019-03-08T08:35:53.175Z,3.07
2019-03-08T08:38:44.633Z,3.70
2019-03-08T08:41:23.370Z,5.70
2019-03-08T08:44:20.584Z,6.60
2019-03-08T08:47:11.887Z,1.53
2019-03-08T08:50:02.875Z,4.53
2019-03-08T08:52:47.500Z,5.60
2019-03-08T08:55:38.127Z,5.03
2019-03-08T08:58:44.915Z,2.67
2019-03-08T09:01:35.971Z,2.67
2019-03-08T09:04:30.351Z,7.80
2019-03-08T09:07:15.259Z,4.13
2019-03-08T09:10:08.052Z,12.37
2019-03-08T09:12:57.527Z,6.00
2019-03-08T09:16:00.627Z,6.83
2019-03-08T09:18:48.238Z,4.37
2019-03-08T09:21:42.270Z,4.37
2019-03-08T09:24:27.905Z,8.10
2019-03-08T09:27:06.670Z,7.27
2019-03-08T09:29:56.446Z,6.33
2019-03-08T09:32:48.119Z,5.27
2019-03-08T09:35:42.111Z,4.77
2019-03-08T09:38:32.173Z,7.13
2019-03-08T09:41:16.029Z,8.17
2019-03-08T09:44:07.657Z,6.23
2019-03-08T09:46:57.563Z,4.27
2019-03-08T09:49:51.891Z,4.97
2019-03-08T09:52:41.660Z,9.27
2019-03-08T09:55:25.941Z,6.13
2019-03-08T09:58:23.046Z,6.33
2019-03-08T10:01:06.507Z,9.37
2019-03-08T10:03:56.119Z,12.93
2019-03-08T10:06:48.147Z,13.93
2019-03-08T10:09:37.520Z,20.17
2019-03-08T10:12:21.562Z,11.23
2019-03-08T10:14:58.418Z,10.30
2019-03-08T10:17:49.774Z,19.30
2019-03-08T10:20:46.730Z,19.37
2019-03-08T10:23:38.237Z,17.03
2019-03-08T10:26:20.779Z,8.30
2019-03-08T10:29:07.878Z,10.87
2019-03-08T10:31:49.259Z,9.93
2019-03-08T10:34:33.775Z,12.97
2019-03-08T10:37:17.599Z,10.57
2019-03-08T10:39:57.007Z,11.03
2019-03-08T10:42:48.362Z,9.20
2019-03-08T10:45:46.458Z,5.80
2019-03-08T10:48:32.835Z,10.70
2019-03-08T10:51:42.379Z,12.43
2019-03-08T10:54:25.590Z,7.10
2019-03-08T10:57:08.431Z,13.80
2019-03-08T11:00:14.634Z,9.93
2019-03-08T11:02:54.117Z,10.93
2019-03-08T11:05:54.471Z,10.07
2019-03-08T11:08:55.082Z,10.73
2019-03-08T11:11:52.432Z,8.97
2019-03-08T11:14:52.610Z,9.53
2019-03-08T11:17:40.490Z,10.73
2019-03-08T11:20:33.459Z,9.77
2019-03-08T11:23:23.947Z,15.43
2019-03-08T11:26:14.375Z,9.87
2019-03-08T11:28:58.171Z,21.60
2019-03-08T11:31:48.165Z,10.00
2019-03-08T11:34:52.297Z,14.33
2019-03-08T11:37:42.459Z,15.73
2019-03-08T11:40:32.035Z,15.80
2019-03-08T11:43:18.185Z,12.23
2019-03-08T11:45:55.838Z,17.70
2019-03-08T11:48:45.875Z,14.97
2019-03-08T11:51:39.358Z,12.80
2019-03-08T11:54:29.726Z,16.60
2019-03-08T11:57:11.352Z,13.23
2019-03-08T12:00:07.238Z,12.83
2019-03-08T12:02:54.943Z,10.70
2019-03-08T12:05:42.757Z,11.93
2019-03-08T12:08:25.819Z,8.97
2019-03-08T12:11:35.307Z,11.37
2019-03-08T12:14:19.133Z,15.30
2019-03-08T12:17:16.607Z,11.40
2019-03-08T12:20:05.742Z,14.80
2019-03-08T12:22:57.434Z,14.17
2019-03-08T12:25:47.346Z,12.10
2019-03-08T12:28:37.908Z,12.53
2019-03-08T12:31:27.930Z,17.33
2019-03-08T12:34:15.506Z,15.50
2019-03-08T12:36:57.782Z,19.47
2019-03-08T12:39:55.159Z,10.53
2019-03-08T12:42:40.935Z,15.20
2019-03-08T12:45:50.485Z,26.17
2019-03-08T12:48:40.687Z,15.10
2019-03-08T12:51:22.419Z,14.67
2019-03-08T12:54:12.244Z,17.10
2019-03-08T12:57:03.254Z,19.13
2019-03-08T13:00:06.215Z,11.53
2019-03-08T13:02:52.706Z,14.43
2019-03-08T13:05:42.718Z,14.27
2019-03-08T13:08:21.259Z,15.33
2019-03-08T13:10:52.917Z,18.07
2019-03-08T13:13:24.687Z,18.30
2019-03-08T13:15:56.355Z,20.20
2019-03-08T13:18:28.331Z,16.17
2019-03-08T13:21:00.099Z,14.03
2019-03-08T13:23:32.515Z,12.43
2019-03-08T13:26:04.177Z,15.93
2019-03-08T13:28:35.931Z,18.17
2019-03-08T13:31:07.789Z,16.27
2019-03-08T13:33:39.574Z,17.00
2019-03-08T13:36:11.512Z,18.33
2019-03-08T13:38:43.187Z,15.23
2019-03-08T13:41:14.867Z,18.13
2019-03-08T13:43:46.525Z,15.47
2019-03-08T13:46:18.211Z,13.00
2019-03-08T13:48:49.868Z,25.77
2019-03-08T13:51:21.542Z,16.10
2019-03-08T13:53:55.539Z,22.03
2019-03-08T13:56:27.315Z,23.73
2019-03-08T13:58:59.075Z,15.07
2019-03-08T14:01:30.744Z,15.97
2019-03-08T14:04:02.410Z,10.93
2019-03-08T14:06:34.298Z,12.53
2019-03-08T14:09:06.799Z,18.10
2019-03-08T14:11:38.575Z,13.23
2019-03-08T14:14:10.251Z,15.33
2019-03-08T14:16:41.963Z,17.13
2019-03-08T14:19:13.715Z,16.27
2019-03-08T14:21:45.511Z,14.00
2019-03-08T14:24:17.170Z,11.77
2019-03-08T14:26:48.843Z,17.10
2019-03-08T14:29:22.328Z,15.87
2019-03-08T14:31:57.336Z,23.67
2019-03-08T14:34:29.074Z,12.97
2019-03-08T14:37:00.742Z,11.07
2019-03-08T14:39:32.411Z,13.57
2019-03-08T14:42:10.919Z,8.87
2019-03-08T14:44:51.879Z,9.33
2019-03-08T14:47:33.308Z,11.87
2019-03-08T14:50:04.871Z,11.40
2019-03-08T14:52:36.546Z,15.23
2019-03-08T14:55:10.964Z,17.10
2019-03-08T14:57:42.815Z,16.50
2019-03-08T15:00:25.461Z,8.73
2019-03-08T15:02:57.123Z,11.77
2019-03-08T15:05:28.832Z,9.50
2019-03-08T15:08:00.563Z,15.90
2019-03-08T15:10:39.137Z,28.73
2019-03-08T15:13:06.100Z,19.13
2019-03-08T15:15:38.651Z,12.73
2019-03-08T15:18:10.439Z,9.70
2019-03-08T15:20:42.135Z,15.03
2019-03-08T15:23:17.178Z,11.20
2019-03-08T15:25:49.049Z,22.73
2019-03-08T15:28:21.015Z,10.20
2019-03-08T15:30:52.791Z,20.30
2019-03-08T15:33:24.486Z,18.80
2019-03-08T15:35:56.154Z,20.73
2019-03-08T15:38:27.849Z,15.80
2019-03-08T15:40:59.899Z,12.07
2019-03-08T15:43:31.583Z,17.33
2019-03-08T15:46:03.355Z,11.83
2019-03-08T15:48:35.050Z,15.07
2019-03-08T15:51:06.728Z,15.67
2019-03-08T15:53:38.427Z,9.07
2019-03-08T15:56:10.096Z,17.00
2019-03-08T15:58:42.684Z,16.13
2019-03-08T16:01:14.358Z,14.90
2019-03-08T16:03:46.163Z,30.77
2019-03-08T16:06:19.618Z,20.40
2019-03-08T16:08:51.518Z,13.00
2019-03-08T16:11:23.224Z,10.53
2019-03-08T16:13:55.285Z,15.17
2019-03-08T16:16:27.046Z,13.57
2019-03-08T16:18:58.710Z,14.00
2019-03-08T16:21:30.398Z,19.20
2019-03-08T16:24:02.267Z,28.37
2019-03-08T16:26:33.999Z,9.17
2019-03-08T16:29:05.770Z,11.57
2019-03-08T16:31:57.135Z,17.10
2019-03-08T16:34:28.803Z,22.57
2019-03-08T16:37:09.638Z,14.53
2019-03-08T16:39:55.954Z,19.27
2019-03-08T16:42:53.046Z,23.53
2019-03-08T16:45:37.683Z,23.40
2019-03-08T16:48:13.035Z,29.10
2019-03-08T16:51:07.905Z,19.83
2019-03-08T16:53:57.832Z,15.57
2019-03-08T16:56:55.007Z,26.87
2019-03-08T16:59:49.113Z,22.37
2019-03-08T17:02:38.751Z,23.17
2019-03-08T17:05:26.619Z,24.97
2019-03-08T17:08:16.469Z,16.67
2019-03-08T17:11:05.569Z,24.03
2019-03-08T17:13:59.736Z,13.43
2019-03-08T17:16:46.071Z,14.37
2019-03-08T17:19:36.025Z,18.30
2019-03-08T17:22:25.926Z,25.53
2019-03-08T17:25:03.691Z,16.17
2019-03-08T17:27:45.526Z,18.07
2019-03-08T17:30:41.076Z,18.93
2019-03-08T17:33:35.335Z,19.03
2019-03-08T17:36:19.747Z,23.13
2019-03-08T17:39:06.738Z,17.07
2019-03-08T17:41:50.279Z,26.13
2019-03-08T17:44:41.650Z,24.67
2019-03-08T17:47:34.001Z,22.90
2019-03-08T17:50:23.623Z,19.33
2019-03-08T17:53:13.575Z,36.37
2019-03-08T17:56:04.099Z,18.27
2019-03-08T17:58:48.019Z,23.30
2019-03-08T18:01:29.625Z,24.27
2019-03-08T18:04:12.729Z,15.13
2019-03-08T18:07:09.894Z,20.13
2019-03-08T18:10:02.547Z,28.57
2019-03-08T18:12:52.631Z,32.00
2019-03-08T18:15:42.580Z,23.13
2019-03-08T18:18:22.321Z,21.60
2019-03-08T18:21:19.423Z,22.57
2019-03-08T18:24:23.476Z,19.87
2019-03-08T18:27:05.971Z,26.50
2019-03-08T18:29:47.708Z,12.93
2019-03-08T18:32:27.022Z,19.43
2019-03-08T18:35:18.681Z,16.20
2019-03-08T18:37:57.389Z,13.63
2019-03-08T18:40:43.078Z,27.43
2019-03-08T18:43:35.344Z,26.73
2019-03-08T18:46:44.623Z,22.33
2019-03-08T18:49:30.863Z,16.57
2019-03-08T18:52:20.856Z,19.03
2019-03-08T18:55:03.514Z,18.60
2019-03-08T18:57:56.450Z,10.60
2019-03-08T19:00:46.791Z,13.80
2019-03-08T19:03:31.575Z,11.90
2019-03-08T19:06:17.871Z,14.10
2019-03-08T19:09:15.312Z,14.10
2019-03-08T19:11:53.192Z,13.43
2019-03-08T19:14:44.674Z,26.37
2019-03-08T19:17:25.505Z,18.03
2019-03-08T19:20:20.642Z,23.00
2019-03-08T19:22:57.736Z,27.63
2019-03-08T19:25:40.086Z,33.90
2019-03-08T19:28:20.395Z,17.27
2019-03-08T19:31:15.075Z,34.90
2019-03-08T19:34:13.368Z,30.40
2019-03-08T19:37:11.055Z,16.67
2019-03-08T19:40:09.117Z,22.63
2019-03-08T19:42:50.195Z,13.53
2019-03-08T19:45:44.468Z,20.33
2019-03-08T19:48:31.293Z,16.83
2019-03-08T19:51:26.215Z,24.00
2019-03-08T19:54:15.691Z,12.90
2019-03-08T19:57:13.348Z,13.73
2019-03-08T20:00:05.220Z,10.60
2019-03-08T20:02:48.064Z,17.50
2019-03-08T20:05:54.666Z,16.07
2019-03-08T20:08:49.378Z,16.60
2019-03-08T20:11:39.713Z,17.23
2019-03-08T20:14:31.524Z,18.60
2019-03-08T20:17:21.692Z,17.07
2019-03-08T20:20:11.741Z,23.93
2019-03-08T20:22:54.728Z,17.60
2019-03-08T20:25:58.066Z,13.67
2019-03-08T20:28:49.901Z,24.60
2019-03-08T20:31:36.855Z,27.73
2019-03-08T20:34:23.108Z,11.90
2019-03-08T20:37:03.548Z,20.93
2019-03-08T20:39:59.757Z,20.37
2019-03-08T20:42:46.252Z,23.60
2019-03-08T20:45:44.346Z,20.93
2019-03-08T20:48:17.124Z,17.57
2019-03-08T20:50:49.394Z,20.47
2019-03-08T20:53:22.042Z,21.33
2019-03-08T20:55:54.570Z,21.77
2019-03-08T20:58:26.801Z,19.90
2019-03-08T21:00:59.097Z,21.27
2019-03-08T21:03:31.285Z,15.33
2019-03-08T21:06:03.588Z,14.77
2019-03-08T21:08:35.500Z,18.80
2019-03-08T21:11:07.617Z,17.20
2019-03-08T21:13:39.985Z,15.63
2019-03-08T21:16:12.503Z,22.23
2019-03-08T21:18:44.323Z,20.10
2019-03-08T21:21:16.165Z,11.33
2019-03-08T21:23:48.047Z,10.13
2019-03-08T21:26:19.872Z,14.97
2019-03-08T21:28:51.805Z,18.43
2019-03-08T21:31:23.468Z,15.07
2019-03-08T21:33:55.186Z,10.80
2019-03-08T21:36:26.875Z,20.77
2019-03-08T21:38:58.865Z,16.90
2019-03-08T21:41:30.657Z,15.57
2019-03-08T21:44:02.596Z,14.27
2019-03-08T21:46:34.259Z,16.00
2019-03-08T21:49:06.152Z,16.67
2019-03-08T21:51:37.820Z,18.50
2019-03-08T21:54:09.528Z,26.77
2019-03-08T21:56:41.195Z,10.70
2019-03-08T21:59:12.875Z,16.87
2019-03-08T22:01:44.535Z,14.90
2019-03-08T22:04:24.902Z,12.23
2019-03-08T22:06:56.580Z,22.37
2019-03-08T22:09:47.835Z,11.00
2019-03-08T22:12:19.600Z,14.07
2019-03-08T22:14:51.317Z,20.27
2019-03-08T22:17:23.085Z,14.73
2019-03-08T22:19:54.750Z,10.87
2019-03-08T22:22:26.450Z,15.50
2019-03-08T22:24:58.133Z,15.17
2019-03-08T22:27:29.895Z,17.23
2019-03-08T22:30:03.551Z,16.93
2019-03-08T22:32:35.251Z,26.40
2019-03-08T22:35:07.031Z,11.53
2019-03-08T22:37:38.707Z,15.70
2019-03-08T22:40:11.017Z,9.97
2019-03-08T22:42:42.807Z,12.47
2019-03-08T22:45:14.600Z,17.20
2019-03-08T22:47:46.292Z,12.07
2019-03-08T22:50:17.980Z,16.80
2019-03-08T22:52:49.641Z,23.83
2019-03-08T22:55:21.423Z,26.20
2019-03-08T22:57:53.095Z,18.70
2019-03-08T23:00:50.405Z,12.50
2019-03-08T23:03:22.494Z,12.70
2019-03-08T23:05:54.296Z,16.13
2019-03-08T23:08:26.161Z,12.23
2019-03-08T23:10:57.946Z,16.57
2019-03-08T23:13:29.708Z,13.77
2019-03-08T23:16:01.582Z,14.20
2019-03-08T23:18:33.288Z,12.57
2019-03-08T23:21:05.007Z,12.73
2019-03-08T23:23:36.701Z,17.43
2019-03-08T23:26:08.387Z,14.90
2019-03-08T23:29:05.763Z,13.40
2019-03-08T23:31:56.975Z,17.50
2019-03-08T23:34:28.663Z,11.50
2019-03-08T23:37:00.323Z,12.97
2019-03-08T23:39:32.579Z,11.40
2019-03-08T23:42:04.372Z,16.40
2019-03-08T23:44:36.070Z,14.83
2019-03-08T23:47:07.753Z,11.97
2019-03-08T23:49:39.449Z,10.53
2019-03-08T23:52:11.279Z,14.07
2019-03-08T23:54:43.028Z,11.53
2019-03-08T23:57:14.939Z,17.57
2019-03-08T23:59:46.641Z,17.53
